createdAt,value
2022-08-30T00:01:31.423Z,5.03
2022-08-30T00:04:00.407Z,5.40
2022-08-30T00:06:29.820Z,5.60
2022-08-30T00:08:57.191Z,5.68
2022-08-30T00:11:28.115Z,5.55
2022-08-30T00:16:26.608Z,4.25
2022-08-30T00:18:54.389Z,5.05
2022-08-30T00:21:22.630Z,5.53
2022-08-30T00:23:49.612Z,5.10
2022-08-30T00:26:17.637Z,5.13
2022-08-30T00:28:44.629Z,5.00
2022-08-30T00:31:15.374Z,5.45
2022-08-30T00:33:42.973Z,4.68
2022-08-30T00:36:09.945Z,5.00
2022-08-30T00:38:36.858Z,5.18
2022-08-30T00:41:03.967Z,5.20
2022-08-30T00:43:34.130Z,4.82
2022-08-30T00:46:08.244Z,4.82
2022-08-30T00:48:44.313Z,4.63
2022-08-30T00:51:14.876Z,5.05
2022-08-30T00:53:49.122Z,4.53
2022-08-30T00:56:17.969Z,4.78
2022-08-30T00:58:50.207Z,4.97
2022-08-30T01:01:18.334Z,4.90
2022-08-30T01:03:46.129Z,5.70
2022-08-30T01:06:15.782Z,4.82
2022-08-30T01:08:45.283Z,4.60
2022-08-30T01:11:20.226Z,5.03
2022-08-30T01:13:48.745Z,4.97
2022-08-30T01:16:16.309Z,5.50
2022-08-30T01:18:44.681Z,4.82
2022-08-30T01:21:23.071Z,4.72
2022-08-30T01:23:53.930Z,5.30
2022-08-30T01:26:22.502Z,5.10
2022-08-30T01:28:54.904Z,5.50
2022-08-30T01:31:22.460Z,4.78
2022-08-30T01:33:49.958Z,4.40
2022-08-30T01:36:19.044Z,5.50
2022-08-30T01:38:54.721Z,4.95
2022-08-30T01:41:30.154Z,4.80
2022-08-30T01:44:00.417Z,4.85
2022-08-30T01:46:38.550Z,4.90
2022-08-30T01:49:10.846Z,5.18
2022-08-30T01:51:39.027Z,4.97
2022-08-30T01:54:06.591Z,5.85
2022-08-30T01:56:34.300Z,5.25
2022-08-30T01:59:03.109Z,4.93
2022-08-30T02:01:34.038Z,4.93
2022-08-30T02:04:01.204Z,5.03
2022-08-30T02:06:28.164Z,5.55
2022-08-30T02:08:55.395Z,5.07
2022-08-30T02:11:22.647Z,5.20
2022-08-30T02:13:51.012Z,5.60
2022-08-30T02:16:23.732Z,5.28
2022-08-30T02:18:56.189Z,4.88
2022-08-30T02:21:24.352Z,5.45
2022-08-30T02:23:52.256Z,5.18
2022-08-30T02:26:19.504Z,4.72
2022-08-30T02:28:49.479Z,4.75
2022-08-30T02:33:52.421Z,3.88
2022-08-30T02:36:21.763Z,4.15
2022-08-30T02:38:50.322Z,4.97
2022-08-30T02:41:18.717Z,4.55
2022-08-30T02:43:46.822Z,4.75
2022-08-30T02:46:14.370Z,4.40
2022-08-30T02:48:41.654Z,5.28
2022-08-30T02:51:14.337Z,5.75
2022-08-30T02:53:43.924Z,4.32
2022-08-30T02:56:13.671Z,5.00
2022-08-30T02:58:42.563Z,5.10
2022-08-30T03:01:13.527Z,4.88
2022-08-30T03:03:44.080Z,4.88
2022-08-30T03:06:11.409Z,4.53
2022-08-30T03:08:38.345Z,5.63
2022-08-30T03:11:06.326Z,5.28
2022-08-30T03:13:33.451Z,5.00
2022-08-30T03:16:00.378Z,5.10
2022-08-30T03:18:27.263Z,4.90
2022-08-30T03:20:55.033Z,4.75
2022-08-30T03:23:23.744Z,4.72
2022-08-30T03:25:51.469Z,5.10
2022-08-30T03:28:18.395Z,4.80
2022-08-30T03:30:45.454Z,4.80
2022-08-30T03:33:12.366Z,4.50
2022-08-30T03:35:39.214Z,4.55
2022-08-30T03:38:06.412Z,4.72
2022-08-30T03:40:33.631Z,4.82
2022-08-30T03:43:01.042Z,4.32
2022-08-30T03:45:28.118Z,4.18
2022-08-30T03:47:55.388Z,4.20
2022-08-30T03:50:22.603Z,4.78
2022-08-30T03:52:49.490Z,4.82
2022-08-30T03:55:16.948Z,4.57
2022-08-30T03:57:44.013Z,4.57
2022-08-30T04:00:13.568Z,4.60
2022-08-30T04:02:41.708Z,4.85
2022-08-30T04:05:11.197Z,4.72
2022-08-30T04:07:39.718Z,4.22
2022-08-30T04:10:09.533Z,4.80
2022-08-30T04:12:38.459Z,5.00
2022-08-30T04:15:06.473Z,4.70
2022-08-30T04:17:33.595Z,4.70
2022-08-30T04:20:00.510Z,4.82
2022-08-30T04:22:27.392Z,5.35
2022-08-30T04:24:54.341Z,4.55
2022-08-30T04:27:21.298Z,4.88
2022-08-30T04:29:48.748Z,5.03
2022-08-30T04:32:16.714Z,5.10
2022-08-30T04:34:44.148Z,4.93
2022-08-30T04:37:11.146Z,4.65
2022-08-30T04:39:38.746Z,4.60
2022-08-30T04:42:06.941Z,4.57
2022-08-30T04:44:33.948Z,4.38
2022-08-30T04:47:00.862Z,5.15
2022-08-30T04:49:27.910Z,4.40
2022-08-30T04:51:55.779Z,4.25
2022-08-30T04:54:22.792Z,4.22
2022-08-30T04:56:49.649Z,4.20
2022-08-30T04:59:16.817Z,4.60
2022-08-30T05:01:45.449Z,4.90
2022-08-30T05:04:14.704Z,4.57
2022-08-30T05:06:42.116Z,5.05
2022-08-30T05:09:09.113Z,5.18
2022-08-30T05:11:36.931Z,5.10
2022-08-30T05:14:03.847Z,4.63
2022-08-30T05:16:30.738Z,5.60
2022-08-30T05:18:58.020Z,4.85
2022-08-30T05:21:27.667Z,4.72
2022-08-30T05:23:58.253Z,5.05
2022-08-30T05:26:32.967Z,4.90
2022-08-30T05:29:00.388Z,4.32
2022-08-30T05:31:35.646Z,4.70
2022-08-30T05:34:03.740Z,4.97
2022-08-30T05:36:35.116Z,5.30
2022-08-30T05:39:02.132Z,5.28
2022-08-30T05:41:33.187Z,5.05
2022-08-30T05:44:02.848Z,5.05
2022-08-30T05:49:07.509Z,4.68
2022-08-30T05:51:43.026Z,5.70
2022-08-30T05:54:13.070Z,4.95
2022-08-30T05:56:42.656Z,4.65
2022-08-30T05:59:09.882Z,4.85
2022-08-30T06:01:42.224Z,4.72
2022-08-30T06:04:12.709Z,4.80
2022-08-30T06:06:43.813Z,4.32
2022-08-30T06:09:13.887Z,4.45
2022-08-30T06:11:41.884Z,4.60
2022-08-30T06:14:08.954Z,4.07
2022-08-30T06:16:38.919Z,5.00
2022-08-30T06:19:08.648Z,4.70
2022-08-30T06:21:37.560Z,5.00
2022-08-30T06:24:07.463Z,4.63
2022-08-30T06:26:43.341Z,4.67
2022-08-30T06:29:14.443Z,4.68
2022-08-30T06:31:41.816Z,4.47
2022-08-30T06:34:08.817Z,4.45
2022-08-30T06:36:36.411Z,4.45
2022-08-30T06:39:03.971Z,4.93
2022-08-30T06:41:34.063Z,4.40
2022-08-30T06:44:04.172Z,4.88
2022-08-30T06:46:35.436Z,4.65
2022-08-30T06:49:05.092Z,4.50
2022-08-30T06:51:39.786Z,5.50
2022-08-30T06:54:10.783Z,5.57
2022-08-30T06:56:55.221Z,4.93
2022-08-30T06:59:27.036Z,4.47
2022-08-30T07:01:55.270Z,4.28
2022-08-30T07:04:22.285Z,4.70
2022-08-30T07:06:49.139Z,4.57
2022-08-30T07:09:16.259Z,4.80
2022-08-30T07:11:43.456Z,4.63
2022-08-30T07:14:10.695Z,4.90
2022-08-30T07:16:37.629Z,4.50
2022-08-30T07:19:06.345Z,4.35
2022-08-30T07:21:40.609Z,4.35
2022-08-30T07:24:09.876Z,4.20
2022-08-30T07:26:42.608Z,4.63
2022-08-30T07:29:10.283Z,4.35
2022-08-30T07:31:37.602Z,4.03
2022-08-30T07:34:07.379Z,4.13
2022-08-30T07:36:36.415Z,4.50
2022-08-30T07:39:05.556Z,4.05
2022-08-30T07:41:36.365Z,4.10
2022-08-30T07:44:03.734Z,4.35
2022-08-30T07:46:30.652Z,4.80
2022-08-30T07:49:00.519Z,3.97
2022-08-30T07:51:29.799Z,4.43
2022-08-30T07:53:57.449Z,3.67
2022-08-30T07:56:25.567Z,4.10
2022-08-30T07:58:53.451Z,4.32
2022-08-30T08:01:23.106Z,4.78
2022-08-30T08:03:52.911Z,4.70
2022-08-30T08:06:22.199Z,3.53
2022-08-30T08:08:50.682Z,3.83
2022-08-30T08:11:29.306Z,4.18
2022-08-30T08:13:58.552Z,3.40
2022-08-30T08:16:29.044Z,3.67
2022-08-30T08:18:56.419Z,3.45
2022-08-30T08:21:26.063Z,3.60
2022-08-30T08:23:54.079Z,3.33
2022-08-30T08:26:21.453Z,3.05
2022-08-30T08:28:48.591Z,2.85
2022-08-30T08:31:28.748Z,3.40
2022-08-30T08:34:02.735Z,3.38
2022-08-30T08:36:31.292Z,2.75
2022-08-30T08:38:59.132Z,2.78
2022-08-30T08:42:05.735Z,3.45
2022-08-30T08:45:00.629Z,2.80
2022-08-30T08:47:56.139Z,2.97
2022-08-30T08:50:24.844Z,2.72
2022-08-30T08:53:45.364Z,3.22
2022-08-30T08:56:17.399Z,2.75
2022-08-30T08:58:47.608Z,2.75
2022-08-30T09:01:20.603Z,3.30
2022-08-30T09:03:48.520Z,3.15
2022-08-30T09:06:52.342Z,2.90
2022-08-30T09:09:26.701Z,3.15
2022-08-30T09:11:53.961Z,2.45
2022-08-30T09:14:30.133Z,2.65
2022-08-30T09:17:05.961Z,2.42
2022-08-30T09:19:45.319Z,3.00
2022-08-30T09:22:32.675Z,3.22
2022-08-30T09:25:20.444Z,2.90
2022-08-30T09:27:50.326Z,2.60
2022-08-30T09:30:31.337Z,2.70
2022-08-30T09:33:18.717Z,2.67
2022-08-30T09:35:49.693Z,2.45
2022-08-30T09:38:30.028Z,2.60
2022-08-30T09:41:02.400Z,2.42
2022-08-30T09:43:34.722Z,2.63
2022-08-30T09:46:02.025Z,2.30
2022-08-30T09:48:46.108Z,2.63
2022-08-30T09:51:15.864Z,2.30
2022-08-30T09:57:17.697Z,2.30
2022-08-30T10:00:21.341Z,2.47
2022-08-30T10:03:26.292Z,2.83
2022-08-30T10:06:24.780Z,2.20
2022-08-30T10:09:27.647Z,2.90
2022-08-30T10:12:29.861Z,2.72
2022-08-30T10:15:25.003Z,2.45
2022-08-30T10:18:05.374Z,2.08
2022-08-30T10:21:09.130Z,2.00
2022-08-30T10:23:44.615Z,2.03
2022-08-30T10:26:44.934Z,2.60
2022-08-30T10:29:25.472Z,2.70
2022-08-30T10:32:19.032Z,2.70
2022-08-30T10:35:01.682Z,1.85
2022-08-30T10:37:35.911Z,2.75
2022-08-30T10:40:45.558Z,4.35
2022-08-30T10:43:43.018Z,2.70
2022-08-30T10:46:22.060Z,2.50
2022-08-30T10:48:49.148Z,3.80
2022-08-30T10:51:49.971Z,4.05
2022-08-30T10:54:34.749Z,3.00
2022-08-30T10:57:01.588Z,2.53
2022-08-30T10:59:29.114Z,2.70
2022-08-30T11:02:22.563Z,2.15
2022-08-30T11:05:08.193Z,3.40
2022-08-30T11:07:52.449Z,2.60
2022-08-30T11:11:05.539Z,3.15
2022-08-30T11:13:41.437Z,2.30
2022-08-30T11:16:15.656Z,2.60
2022-08-30T11:18:53.995Z,2.67
2022-08-30T11:21:32.750Z,4.22
2022-08-30T11:24:11.396Z,3.17
2022-08-30T11:26:50.688Z,3.10
2022-08-30T11:29:26.955Z,2.63
2022-08-30T11:32:21.014Z,2.35
2022-08-30T11:34:47.781Z,2.75
2022-08-30T11:37:37.267Z,2.80
2022-08-30T11:40:22.755Z,2.75
2022-08-30T11:42:53.558Z,2.60
2022-08-30T11:45:25.197Z,2.40
2022-08-30T11:48:07.371Z,2.33
2022-08-30T11:50:58.585Z,2.33
2022-08-30T11:54:03.909Z,2.70
2022-08-30T11:56:47.451Z,2.13
2022-08-30T11:59:38.393Z,2.33
2022-08-30T12:02:08.233Z,2.10
2022-08-30T12:04:47.109Z,2.60
2022-08-30T12:08:21.151Z,2.55
2022-08-30T12:10:59.427Z,2.33
2022-08-30T12:13:37.082Z,2.22
2022-08-30T12:16:36.484Z,2.40
2022-08-30T12:19:20.964Z,2.28
2022-08-30T12:22:08.250Z,2.65
2022-08-30T12:24:46.414Z,2.28
2022-08-30T12:27:34.043Z,2.35
2022-08-30T12:30:08.662Z,2.28
2022-08-30T12:32:47.360Z,2.10
2022-08-30T12:35:28.319Z,2.20
2022-08-30T12:38:06.973Z,2.72
2022-08-30T12:40:37.250Z,2.47
2022-08-30T12:45:50.842Z,2.30
2022-08-30T12:48:20.290Z,2.72
2022-08-30T12:50:57.859Z,2.15
2022-08-30T12:53:39.298Z,2.30
2022-08-30T12:56:15.107Z,2.17
2022-08-30T12:58:53.399Z,2.33
2022-08-30T13:01:36.891Z,2.58
2022-08-30T13:04:27.913Z,2.70
2022-08-30T13:07:02.307Z,2.40
2022-08-30T13:09:39.973Z,2.38
2022-08-30T13:12:23.716Z,2.45
2022-08-30T13:14:53.627Z,2.35
2022-08-30T13:17:27.373Z,2.60
2022-08-30T13:20:11.789Z,2.50
2022-08-30T13:23:09.483Z,2.75
2022-08-30T13:25:39.802Z,2.35
2022-08-30T13:30:35.817Z,2.55
2022-08-30T13:33:03.106Z,2.08
2022-08-30T13:35:31.261Z,2.42
2022-08-30T13:38:01.868Z,2.78
2022-08-30T13:40:28.877Z,2.70
2022-08-30T13:42:56.741Z,2.97
2022-08-30T13:45:41.512Z,2.33
2022-08-30T13:48:10.830Z,2.63
2022-08-30T13:50:38.549Z,2.33
2022-08-30T13:53:05.766Z,2.65
2022-08-30T13:55:33.949Z,2.45
2022-08-30T13:58:00.835Z,2.65
2022-08-30T14:00:28.568Z,2.55
2022-08-30T14:02:57.525Z,2.28
2022-08-30T14:08:48.759Z,2.20
2022-08-30T14:11:21.051Z,2.45
2022-08-30T14:16:42.668Z,2.30
2022-08-30T14:19:12.537Z,2.30
2022-08-30T14:21:39.606Z,2.45
2022-08-30T14:24:07.502Z,2.47
2022-08-30T14:26:48.458Z,2.50
2022-08-30T14:29:22.748Z,2.58
2022-08-30T14:31:51.576Z,2.45
2022-08-30T14:34:19.073Z,2.15
2022-08-30T14:36:47.336Z,2.17
2022-08-30T14:39:19.061Z,2.83
2022-08-30T14:41:50.606Z,1.90
2022-08-30T14:44:20.834Z,2.08
2022-08-30T14:46:48.829Z,2.17
2022-08-30T14:49:19.011Z,2.05
2022-08-30T14:51:48.471Z,1.88
2022-08-30T14:54:22.161Z,2.20
2022-08-30T14:56:49.002Z,1.75
2022-08-30T14:59:16.841Z,1.88
2022-08-30T15:01:44.491Z,2.00
2022-08-30T15:04:14.116Z,1.80
2022-08-30T15:06:45.111Z,1.77
2022-08-30T15:09:18.579Z,2.13
2022-08-30T15:11:51.574Z,1.80
2022-08-30T15:14:18.793Z,2.08
2022-08-30T15:16:45.824Z,1.83
2022-08-30T15:19:13.668Z,2.00
2022-08-30T15:21:45.359Z,1.60
2022-08-30T15:24:16.812Z,1.65
2022-08-30T15:26:44.326Z,2.10
2022-08-30T15:29:16.239Z,1.65
2022-08-30T15:31:44.596Z,1.80
2022-08-30T15:34:15.528Z,1.87
2022-08-30T15:36:44.811Z,1.80
2022-08-30T15:41:40.558Z,1.50
2022-08-30T15:44:12.428Z,1.55
2022-08-30T15:46:43.896Z,1.92
2022-08-30T15:49:17.138Z,1.50
2022-08-30T15:51:48.402Z,1.52
2022-08-30T15:54:22.640Z,1.90
2022-08-30T15:56:50.004Z,1.88
2022-08-30T15:59:17.587Z,1.73
2022-08-30T16:01:47.539Z,1.57
2022-08-30T16:04:18.650Z,1.55
2022-08-30T16:06:46.658Z,1.70
2022-08-30T16:09:13.908Z,1.75
2022-08-30T16:11:41.759Z,1.60
2022-08-30T16:14:09.844Z,1.52
2022-08-30T16:16:39.876Z,1.77
2022-08-30T16:19:09.530Z,1.70
2022-08-30T16:21:37.635Z,1.85
2022-08-30T16:24:07.597Z,1.50
2022-08-30T16:26:38.086Z,1.67
2022-08-30T16:29:07.408Z,1.55
2022-08-30T16:31:37.048Z,1.65
2022-08-30T16:34:04.665Z,1.67
2022-08-30T16:36:33.187Z,1.52
2022-08-30T16:39:00.706Z,1.95
2022-08-30T16:41:28.407Z,2.05
2022-08-30T16:43:56.619Z,2.00
2022-08-30T16:46:27.887Z,2.05
2022-08-30T16:48:58.648Z,2.05
2022-08-30T16:51:29.667Z,2.30
2022-08-30T16:54:00.063Z,1.88
2022-08-30T16:56:31.573Z,1.92
2022-08-30T16:59:02.185Z,2.05
2022-08-30T17:01:34.838Z,2.42
2022-08-30T17:04:03.586Z,2.10
2022-08-30T17:06:30.835Z,2.40
2022-08-30T17:08:59.380Z,2.03
2022-08-30T17:11:27.309Z,1.60
2022-08-30T17:13:54.428Z,1.75
2022-08-30T17:16:28.180Z,2.13
2022-08-30T17:19:00.611Z,1.85
2022-08-30T17:21:29.760Z,2.13
2022-08-30T17:24:01.534Z,1.92
2022-08-30T17:26:31.228Z,2.28
2022-08-30T17:28:58.435Z,2.10
2022-08-30T17:31:29.128Z,1.90
2022-08-30T17:34:02.962Z,2.40
2022-08-30T17:36:36.644Z,2.40
2022-08-30T17:39:11.119Z,1.85
2022-08-30T17:41:43.333Z,2.00
2022-08-30T17:44:15.289Z,1.90
2022-08-30T17:46:42.322Z,2.10
2022-08-30T17:49:10.548Z,1.95
2022-08-30T17:51:40.882Z,2.50
2022-08-30T17:54:09.799Z,2.25
2022-08-30T17:56:36.760Z,1.92
2022-08-30T17:59:05.991Z,2.42
2022-08-30T18:01:33.600Z,2.30
2022-08-30T18:04:02.018Z,2.28
2022-08-30T18:06:33.336Z,1.90
2022-08-30T18:09:03.052Z,2.13
2022-08-30T18:11:30.066Z,2.15
2022-08-30T18:13:57.317Z,2.25
2022-08-30T18:16:26.594Z,2.35
2022-08-30T18:18:57.346Z,2.28
2022-08-30T18:21:25.682Z,2.85
2022-08-30T18:23:56.267Z,2.80
2022-08-30T18:26:24.505Z,2.90
2022-08-30T18:28:52.447Z,3.15
2022-08-30T18:31:19.751Z,2.63
2022-08-30T18:33:47.415Z,2.13
2022-08-30T18:36:14.811Z,2.53
2022-08-30T18:38:42.756Z,2.88
2022-08-30T18:41:15.639Z,3.15
2022-08-30T18:43:44.814Z,2.58
2022-08-30T18:46:16.793Z,3.17
2022-08-30T18:48:46.438Z,2.85
2022-08-30T18:51:21.272Z,3.00
2022-08-30T18:53:49.382Z,3.08
2022-08-30T18:56:17.206Z,2.90
2022-08-30T18:58:47.500Z,3.20
2022-08-30T19:01:20.725Z,2.63
2022-08-30T19:03:49.920Z,2.92
2022-08-30T19:06:19.555Z,2.75
2022-08-30T19:08:47.163Z,3.00
2022-08-30T19:11:16.332Z,3.75
2022-08-30T19:13:43.803Z,3.05
2022-08-30T19:18:57.964Z,3.22
2022-08-30T19:21:25.060Z,3.35
2022-08-30T19:23:55.081Z,3.25
2022-08-30T19:26:22.330Z,3.30
2022-08-30T19:28:49.292Z,3.25
2022-08-30T19:31:16.204Z,2.90
2022-08-30T19:33:44.275Z,3.00
2022-08-30T19:36:11.247Z,3.60
2022-08-30T19:38:38.493Z,3.00
2022-08-30T19:41:05.652Z,3.28
2022-08-30T19:43:32.688Z,3.55
2022-08-30T19:46:00.649Z,3.15
2022-08-30T19:48:32.814Z,3.40
2022-08-30T19:51:08.062Z,3.30
2022-08-30T19:53:35.096Z,3.60
2022-08-30T19:56:02.340Z,3.30
2022-08-30T19:58:30.313Z,3.60
2022-08-30T20:01:00.819Z,3.97
2022-08-30T20:05:54.938Z,3.22
2022-08-30T20:08:22.516Z,3.88
2022-08-30T20:10:49.380Z,3.15
2022-08-30T20:13:19.320Z,3.92
2022-08-30T20:15:56.965Z,3.35
2022-08-30T20:18:25.976Z,3.13
2022-08-30T20:20:53.453Z,3.38
2022-08-30T20:23:24.155Z,3.97
2022-08-30T20:24:32.316Z,3.33
2022-08-30T20:25:55.398Z,3.97
2022-08-30T20:28:25.006Z,3.80
2022-08-30T20:30:53.549Z,4.18
2022-08-30T20:33:24.389Z,3.80
2022-08-30T20:35:52.043Z,4.13
2022-08-30T20:38:21.636Z,3.50
2022-08-30T20:40:52.627Z,3.60
2022-08-30T20:43:23.979Z,3.55
2022-08-30T20:45:51.290Z,3.60
2022-08-30T20:48:19.684Z,4.28
2022-08-30T20:50:47.546Z,3.80
2022-08-30T20:53:15.751Z,3.80
2022-08-30T20:55:45.677Z,3.83
2022-08-30T20:58:13.992Z,4.00
2022-08-30T21:00:40.840Z,3.72
2022-08-30T21:03:26.439Z,4.07
2022-08-30T21:05:55.305Z,4.00
2022-08-30T21:08:22.354Z,4.10
2022-08-30T21:10:49.296Z,3.70
2022-08-30T21:13:16.184Z,4.38
2022-08-30T21:15:46.406Z,4.05
2022-08-30T21:18:14.490Z,4.22
2022-08-30T21:20:42.057Z,4.10
2022-08-30T21:23:09.519Z,4.18
2022-08-30T21:25:43.169Z,4.07
2022-08-30T21:28:10.755Z,4.03
2022-08-30T21:30:38.039Z,4.03
2022-08-30T21:33:07.756Z,3.67
2022-08-30T21:35:56.609Z,3.97
2022-08-30T21:38:23.764Z,3.67
2022-08-30T21:40:50.779Z,4.15
2022-08-30T21:43:17.686Z,4.20
2022-08-30T21:45:45.632Z,3.95
2022-08-30T21:48:14.237Z,4.10
2022-08-30T21:50:43.041Z,4.05
2022-08-30T21:53:10.605Z,4.22
2022-08-30T21:55:37.698Z,4.10
2022-08-30T21:58:04.661Z,4.30
2022-08-30T22:00:33.546Z,4.47
2022-08-30T22:03:00.694Z,4.50
2022-08-30T22:05:28.065Z,4.03
2022-08-30T22:07:55.029Z,4.20
2022-08-30T22:10:22.215Z,4.57
2022-08-30T22:12:49.305Z,4.82
2022-08-30T22:15:16.992Z,4.32
2022-08-30T22:17:44.211Z,4.10
2022-08-30T22:20:18.650Z,4.97
2022-08-30T22:22:45.796Z,4.32
2022-08-30T22:25:12.872Z,3.85
2022-08-30T22:27:40.022Z,4.22
2022-08-30T22:30:07.561Z,4.53
2022-08-30T22:32:34.578Z,4.60
2022-08-30T22:35:01.552Z,4.65
2022-08-30T22:37:29.113Z,4.15
2022-08-30T22:39:55.977Z,4.55
2022-08-30T22:42:22.839Z,4.88
2022-08-30T22:44:49.839Z,4.70
2022-08-30T22:47:16.702Z,4.40
2022-08-30T22:49:43.614Z,4.35
2022-08-30T22:52:10.499Z,4.65
2022-08-30T22:54:37.827Z,4.65
2022-08-30T22:57:04.981Z,4.50
2022-08-30T22:59:32.449Z,4.53
2022-08-30T23:01:59.852Z,4.18
2022-08-30T23:04:26.858Z,4.50
2022-08-30T23:06:53.798Z,3.75
2022-08-30T23:09:20.686Z,4.50
2022-08-30T23:11:47.771Z,4.75
2022-08-30T23:14:14.684Z,4.63
2022-08-30T23:16:41.607Z,4.45
2022-08-30T23:19:09.079Z,4.82
2022-08-30T23:21:36.006Z,4.10
2022-08-30T23:24:21.997Z,4.93
2022-08-30T23:27:07.464Z,3.90
2022-08-30T23:29:53.857Z,4.07
2022-08-30T23:32:39.820Z,4.22
2022-08-30T23:35:30.425Z,4.50
2022-08-30T23:38:18.812Z,4.90
2022-08-30T23:41:03.998Z,4.07
2022-08-30T23:43:49.551Z,3.70
2022-08-30T23:46:35.544Z,4.18
2022-08-30T23:49:21.477Z,4.32
2022-08-30T23:52:06.990Z,4.05
2022-08-30T23:54:57.583Z,4.00
2022-08-30T23:57:45.163Z,4.13
